sensor_id;sensor_type;location;lat;lon;timestamp;temperature;humidity
67194;DHT22;54121;53.508;49.422;2023-02-15T00:01:53;-6.00;67.70
67194;DHT22;54121;53.508;49.422;2023-02-15T00:04:22;-6.10;68.50
67194;DHT22;54121;53.508;49.422;2023-02-15T00:06:49;-6.10;69.10
67194;DHT22;54121;53.508;49.422;2023-02-15T00:09:16;-6.20;69.50
67194;DHT22;54121;53.508;49.422;2023-02-15T00:11:42;-6.20;69.60
67194;DHT22;54121;53.508;49.422;2023-02-15T00:14:22;-6.20;69.60
67194;DHT22;54121;53.508;49.422;2023-02-15T00:16:50;-6.20;69.40
67194;DHT22;54121;53.508;49.422;2023-02-15T00:19:19;-6.20;69.50
67194;DHT22;54121;53.508;49.422;2023-02-15T00:21:46;-6.10;68.90
67194;DHT22;54121;53.508;49.422;2023-02-15T00:24:15;-6.20;68.60
67194;DHT22;54121;53.508;49.422;2023-02-15T00:26:42;-6.20;68.80
67194;DHT22;54121;53.508;49.422;2023-02-15T00:29:11;-6.10;68.30
67194;DHT22;54121;53.508;49.422;2023-02-15T00:31:38;-6.10;68.00
67194;DHT22;54121;53.508;49.422;2023-02-15T00:34:06;-6.10;67.80
67194;DHT22;54121;53.508;49.422;2023-02-15T00:36:33;-6.00;68.30
67194;DHT22;54121;53.508;49.422;2023-02-15T00:39:00;-8.10;66.40
67194;DHT22;54121;53.508;49.422;2023-02-15T00:41:26;-5.90;67.00
67194;DHT22;54121;53.508;49.422;2023-02-15T00:43:53;-5.90;66.90
67194;DHT22;54121;53.508;49.422;2023-02-15T00:46:19;-5.90;66.90
67194;DHT22;54121;53.508;49.422;2023-02-15T00:48:45;-5.90;66.80
67194;DHT22;54121;53.508;49.422;2023-02-15T00:51:12;-6.00;67.30
67194;DHT22;54121;53.508;49.422;2023-02-15T00:53:38;-6.10;67.50
67194;DHT22;54121;53.508;49.422;2023-02-15T00:56:05;-6.00;67.60
67194;DHT22;54121;53.508;49.422;2023-02-15T00:58:31;-5.80;66.50
67194;DHT22;54121;53.508;49.422;2023-02-15T01:01:04;-5.90;66.10
67194;DHT22;54121;53.508;49.422;2023-02-15T01:03:31;-5.90;66.20
67194;DHT22;54121;53.508;49.422;2023-02-15T01:05:58;-6.10;67.10
67194;DHT22;54121;53.508;49.422;2023-02-15T01:08:24;-6.00;67.10
67194;DHT22;54121;53.508;49.422;2023-02-15T01:10:51;-6.20;67.00
67194;DHT22;54121;53.508;49.422;2023-02-15T01:13:18;-6.20;68.00
67194;DHT22;54121;53.508;49.422;2023-02-15T01:15:45;-6.10;67.60
67194;DHT22;54121;53.508;49.422;2023-02-15T01:18:11;-6.20;67.50
67194;DHT22;54121;53.508;49.422;2023-02-15T01:20:39;-6.10;67.60
67194;DHT22;54121;53.508;49.422;2023-02-15T01:23:08;-6.10;68.10
67194;DHT22;54121;53.508;49.422;2023-02-15T01:25:35;-6.30;67.40
67194;DHT22;54121;53.508;49.422;2023-02-15T01:28:02;-6.20;67.50
67194;DHT22;54121;53.508;49.422;2023-02-15T01:30:29;-6.20;67.90
67194;DHT22;54121;53.508;49.422;2023-02-15T01:32:56;-6.30;67.50
67194;DHT22;54121;53.508;49.422;2023-02-15T01:35:22;-6.10;67.90
67194;DHT22;54121;53.508;49.422;2023-02-15T01:37:49;-6.10;67.30
67194;DHT22;54121;53.508;49.422;2023-02-15T01:40:18;-6.30;67.40
67194;DHT22;54121;53.508;49.422;2023-02-15T01:42:44;-6.20;67.90
67194;DHT22;54121;53.508;49.422;2023-02-15T01:45:29;-6.40;68.50
67194;DHT22;54121;53.508;49.422;2023-02-15T01:48:10;-6.30;68.20
67194;DHT22;54121;53.508;49.422;2023-02-15T01:50:45;-6.10;67.80
67194;DHT22;54121;53.508;49.422;2023-02-15T01:56:08;-6.20;66.90
67194;DHT22;54121;53.508;49.422;2023-02-15T01:58:35;-6.20;67.80
67194;DHT22;54121;53.508;49.422;2023-02-15T02:01:04;-6.30;68.10
67194;DHT22;54121;53.508;49.422;2023-02-15T02:03:49;-6.20;68.20
67194;DHT22;54121;53.508;49.422;2023-02-15T02:06:20;-6.40;68.20
67194;DHT22;54121;53.508;49.422;2023-02-15T02:08:48;-6.40;68.60
67194;DHT22;54121;53.508;49.422;2023-02-15T02:11:15;-6.40;68.20
67194;DHT22;54121;53.508;49.422;2023-02-15T02:13:43;-6.40;68.20
67194;DHT22;54121;53.508;49.422;2023-02-15T02:22:07;-6.00;66.80
67194;DHT22;54121;53.508;49.422;2023-02-15T02:36:01;-6.30;67.10
67194;DHT22;54121;53.508;49.422;2023-02-15T02:41:24;-6.20;66.00
67194;DHT22;54121;53.508;49.422;2023-02-15T02:46:54;-6.20;66.30
67194;DHT22;54121;53.508;49.422;2023-02-15T02:49:34;-6.20;66.40
67194;DHT22;54121;53.508;49.422;2023-02-15T02:52:03;-6.30;67.20
67194;DHT22;54121;53.508;49.422;2023-02-15T02:54:31;-6.30;67.00
67194;DHT22;54121;53.508;49.422;2023-02-15T02:57:03;-6.30;67.00
67194;DHT22;54121;53.508;49.422;2023-02-15T02:59:36;-6.20;66.80
67194;DHT22;54121;53.508;49.422;2023-02-15T03:02:34;-6.20;67.40
67194;DHT22;54121;53.508;49.422;2023-02-15T03:05:07;-6.30;67.30
67194;DHT22;54121;53.508;49.422;2023-02-15T03:07:35;-6.20;67.50
67194;DHT22;54121;53.508;49.422;2023-02-15T03:10:04;-6.20;66.90
67194;DHT22;54121;53.508;49.422;2023-02-15T03:12:36;-6.40;67.00
67194;DHT22;54121;53.508;49.422;2023-02-15T03:15:10;-6.40;68.00
67194;DHT22;54121;53.508;49.422;2023-02-15T03:17:41;-6.30;67.50
67194;DHT22;54121;53.508;49.422;2023-02-15T03:20:22;-6.50;67.70
67194;DHT22;54121;53.508;49.422;2023-02-15T03:23:13;-6.50;68.10
67194;DHT22;54121;53.508;49.422;2023-02-15T03:25:43;-6.30;67.60
67194;DHT22;54121;53.508;49.422;2023-02-15T03:28:13;-6.30;69.40
67194;DHT22;54121;53.508;49.422;2023-02-15T03:30:45;-6.40;68.80
67194;DHT22;54121;53.508;49.422;2023-02-15T03:33:11;-6.60;69.20
67194;DHT22;54121;53.508;49.422;2023-02-15T03:35:52;-6.50;69.40
67194;DHT22;54121;53.508;49.422;2023-02-15T03:38:28;-6.50;69.30
67194;DHT22;54121;53.508;49.422;2023-02-15T03:40:59;-6.50;69.70
67194;DHT22;54121;53.508;49.422;2023-02-15T03:44:00;-6.70;70.20
67194;DHT22;54121;53.508;49.422;2023-02-15T03:46:49;-6.70;71.10
67194;DHT22;54121;53.508;49.422;2023-02-15T03:49:26;-6.80;71.80
67194;DHT22;54121;53.508;49.422;2023-02-15T03:51:57;-6.90;72.60
67194;DHT22;54121;53.508;49.422;2023-02-15T03:54:29;-6.90;72.90
67194;DHT22;54121;53.508;49.422;2023-02-15T03:57:17;-6.90;73.70
67194;DHT22;54121;53.508;49.422;2023-02-15T04:00:14;-7.00;74.20
67194;DHT22;54121;53.508;49.422;2023-02-15T04:03:45;-7.00;74.20
67194;DHT22;54121;53.508;49.422;2023-02-15T04:06:16;-6.90;74.80
67194;DHT22;54121;53.508;49.422;2023-02-15T04:08:42;-6.60;74.70
67194;DHT22;54121;53.508;49.422;2023-02-15T04:11:27;-6.20;73.20
67194;DHT22;54121;53.508;49.422;2023-02-15T04:13:53;-6.20;71.60
67194;DHT22;54121;53.508;49.422;2023-02-15T04:16:28;-6.20;72.10
67194;DHT22;54121;53.508;49.422;2023-02-15T04:18:55;-6.10;71.30
67194;DHT22;54121;53.508;49.422;2023-02-15T04:21:39;-5.90;70.70
67194;DHT22;54121;53.508;49.422;2023-02-15T04:24:24;-5.70;69.80
67194;DHT22;54121;53.508;49.422;2023-02-15T04:27:09;-5.40;68.10
67194;DHT22;54121;53.508;49.422;2023-02-15T04:29:35;-5.40;66.90
67194;DHT22;54121;53.508;49.422;2023-02-15T04:32:02;-5.40;67.00
67194;DHT22;54121;53.508;49.422;2023-02-15T04:34:28;-5.00;66.50
67194;DHT22;54121;53.508;49.422;2023-02-15T04:36:55;-4.70;64.60
67194;DHT22;54121;53.508;49.422;2023-02-15T04:39:21;-4.80;63.80
67194;DHT22;54121;53.508;49.422;2023-02-15T04:41:48;-5.00;64.50
67194;DHT22;54121;53.508;49.422;2023-02-15T04:44:14;-4.70;63.70
67194;DHT22;54121;53.508;49.422;2023-02-15T04:46:41;-4.40;62.80
67194;DHT22;54121;53.508;49.422;2023-02-15T04:49:23;-4.30;61.40
67194;DHT22;54121;53.508;49.422;2023-02-15T04:51:50;-4.10;61.40
67194;DHT22;54121;53.508;49.422;2023-02-15T04:54:16;-3.90;60.50
67194;DHT22;54121;53.508;49.422;2023-02-15T04:56:43;-4.00;59.70
67194;DHT22;54121;53.508;49.422;2023-02-15T04:59:10;-3.70;59.60
67194;DHT22;54121;53.508;49.422;2023-02-15T05:01:37;-4.10;59.10
67194;DHT22;54121;53.508;49.422;2023-02-15T05:04:04;-4.20;61.10
67194;DHT22;54121;53.508;49.422;2023-02-15T05:06:30;-4.30;60.50
67194;DHT22;54121;53.508;49.422;2023-02-15T05:08:57;-4.40;60.90
67194;DHT22;54121;53.508;49.422;2023-02-15T05:11:25;-4.20;60.70
67194;DHT22;54121;53.508;49.422;2023-02-15T05:13:52;-4.10;60.60
67194;DHT22;54121;53.508;49.422;2023-02-15T05:16:18;-4.10;60.00
67194;DHT22;54121;53.508;49.422;2023-02-15T05:18:45;-3.90;59.80
67194;DHT22;54121;53.508;49.422;2023-02-15T05:21:17;-4.00;59.10
67194;DHT22;54121;53.508;49.422;2023-02-15T05:23:44;-4.20;59.10
67194;DHT22;54121;53.508;49.422;2023-02-15T05:26:34;-4.00;59.10
67194;DHT22;54121;53.508;49.422;2023-02-15T05:29:24;-3.40;58.40
67194;DHT22;54121;53.508;49.422;2023-02-15T05:31:51;-2.90;55.90
67194;DHT22;54121;53.508;49.422;2023-02-15T05:34:17;-2.90;54.90
67194;DHT22;54121;53.508;49.422;2023-02-15T05:36:55;-2.90;55.70
67194;DHT22;54121;53.508;49.422;2023-02-15T05:39:21;-2.70;55.00
67194;DHT22;54121;53.508;49.422;2023-02-15T05:41:48;-3.00;54.80
67194;DHT22;54121;53.508;49.422;2023-02-15T05:44:20;-2.90;55.00
67194;DHT22;54121;53.508;49.422;2023-02-15T05:46:58;-3.10;55.60
67194;DHT22;54121;53.508;49.422;2023-02-15T05:49:25;-2.90;55.10
67194;DHT22;54121;53.508;49.422;2023-02-15T05:51:51;-2.90;54.80
67194;DHT22;54121;53.508;49.422;2023-02-15T05:54:18;-3.10;54.90
67194;DHT22;54121;53.508;49.422;2023-02-15T05:56:44;-3.10;55.10
67194;DHT22;54121;53.508;49.422;2023-02-15T05:59:16;-2.90;54.60
67194;DHT22;54121;53.508;49.422;2023-02-15T06:01:42;-2.70;55.00
67194;DHT22;54121;53.508;49.422;2023-02-15T06:04:08;-2.50;53.00
67194;DHT22;54121;53.508;49.422;2023-02-15T06:06:35;-1.80;52.40
67194;DHT22;54121;53.508;49.422;2023-02-15T06:09:07;-1.80;50.50
67194;DHT22;54121;53.508;49.422;2023-02-15T06:11:34;-1.90;50.90
67194;DHT22;54121;53.508;49.422;2023-02-15T06:14:00;-2.10;51.60
67194;DHT22;54121;53.508;49.422;2023-02-15T06:16:27;-1.60;50.50
67194;DHT22;54121;53.508;49.422;2023-02-15T06:18:53;-1.90;50.30
67194;DHT22;54121;53.508;49.422;2023-02-15T06:21:25;-1.70;49.90
67194;DHT22;54121;53.508;49.422;2023-02-15T06:23:52;-1.70;50.30
67194;DHT22;54121;53.508;49.422;2023-02-15T06:26:18;-1.10;49.10
67194;DHT22;54121;53.508;49.422;2023-02-15T06:28:45;-1.10;48.10
67194;DHT22;54121;53.508;49.422;2023-02-15T06:31:32;-0.90;46.90
67194;DHT22;54121;53.508;49.422;2023-02-15T06:34:20;-0.90;47.20
67194;DHT22;54121;53.508;49.422;2023-02-15T06:37:04;-0.90;46.40
67194;DHT22;54121;53.508;49.422;2023-02-15T06:39:42;-0.70;46.80
67194;DHT22;54121;53.508;49.422;2023-02-15T06:42:10;-0.40;46.00
67194;DHT22;54121;53.508;49.422;2023-02-15T06:44:36;0.10;45.00
67194;DHT22;54121;53.508;49.422;2023-02-15T06:47:03;0.40;43.50
67194;DHT22;54121;53.508;49.422;2023-02-15T06:49:29;0.40;43.30
67194;DHT22;54121;53.508;49.422;2023-02-15T06:51:56;0.70;42.90
67194;DHT22;54121;53.508;49.422;2023-02-15T06:54:24;0.70;42.80
67194;DHT22;54121;53.508;49.422;2023-02-15T06:56:50;0.20;43.00
67194;DHT22;54121;53.508;49.422;2023-02-15T06:59:17;0.00;43.80
67194;DHT22;54121;53.508;49.422;2023-02-15T07:01:44;0.50;44.30
67194;DHT22;54121;53.508;49.422;2023-02-15T07:04:11;0.40;43.10
67194;DHT22;54121;53.508;49.422;2023-02-15T07:06:53;0.30;43.80
67194;DHT22;54121;53.508;49.422;2023-02-15T07:09:31;1.10;42.20
67194;DHT22;54121;53.508;49.422;2023-02-15T07:11:57;1.60;40.80
67194;DHT22;54121;53.508;49.422;2023-02-15T07:14:42;1.90;39.50
67194;DHT22;54121;53.508;49.422;2023-02-15T07:17:09;1.90;39.30
67194;DHT22;54121;53.508;49.422;2023-02-15T07:19:36;1.50;39.10
67194;DHT22;54121;53.508;49.422;2023-02-15T07:22:02;1.10;40.30
67194;DHT22;54121;53.508;49.422;2023-02-15T07:24:31;0.70;40.80
67194;DHT22;54121;53.508;49.422;2023-02-15T07:27:04;1.10;42.00
67194;DHT22;54121;53.508;49.422;2023-02-15T07:29:44;1.60;40.90
67194;DHT22;54121;53.508;49.422;2023-02-15T07:32:22;2.00;40.30
67194;DHT22;54121;53.508;49.422;2023-02-15T07:34:48;2.40;39.00
67194;DHT22;54121;53.508;49.422;2023-02-15T07:37:31;1.80;38.70
67194;DHT22;54121;53.508;49.422;2023-02-15T07:40:21;2.40;39.00
67194;DHT22;54121;53.508;49.422;2023-02-15T07:42:50;2.70;37.60
67194;DHT22;54121;53.508;49.422;2023-02-15T07:45:29;2.60;37.00
67194;DHT22;54121;53.508;49.422;2023-02-15T07:48:03;2.50;37.50
67194;DHT22;54121;53.508;49.422;2023-02-15T07:50:53;2.20;38.60
67194;DHT22;54121;53.508;49.422;2023-02-15T07:53:20;4.20;38.60
67194;DHT22;54121;53.508;49.422;2023-02-15T07:55:46;3.30;35.10
67194;DHT22;54121;53.508;49.422;2023-02-15T07:58:12;2.50;36.70
67194;DHT22;54121;53.508;49.422;2023-02-15T08:00:39;2.80;37.50
67194;DHT22;54121;53.508;49.422;2023-02-15T08:03:47;3.30;36.50
67194;DHT22;54121;53.508;49.422;2023-02-15T08:06:33;3.10;36.00
67194;DHT22;54121;53.508;49.422;2023-02-15T08:09:03;3.40;36.30
67194;DHT22;54121;53.508;49.422;2023-02-15T08:11:54;3.10;35.30
67194;DHT22;54121;53.508;49.422;2023-02-15T08:14:31;2.70;36.80
67194;DHT22;54121;53.508;49.422;2023-02-15T08:17:00;2.80;37.20
67194;DHT22;54121;53.508;49.422;2023-02-15T08:19:29;2.50;37.20
67194;DHT22;54121;53.508;49.422;2023-02-15T08:22:13;3.00;36.90
67194;DHT22;54121;53.508;49.422;2023-02-15T08:24:40;3.70;36.70
67194;DHT22;54121;53.508;49.422;2023-02-15T08:27:08;4.10;36.60
67194;DHT22;54121;53.508;49.422;2023-02-15T08:29:36;4.60;35.00
67194;DHT22;54121;53.508;49.422;2023-02-15T08:32:06;4.80;34.50
67194;DHT22;54121;53.508;49.422;2023-02-15T08:34:36;4.80;33.40
67194;DHT22;54121;53.508;49.422;2023-02-15T08:37:03;4.60;35.30
67194;DHT22;54121;53.508;49.422;2023-02-15T08:39:29;5.40;33.40
67194;DHT22;54121;53.508;49.422;2023-02-15T08:42:02;4.70;32.60
67194;DHT22;54121;53.508;49.422;2023-02-15T08:44:28;5.00;34.90
67194;DHT22;54121;53.508;49.422;2023-02-15T08:47:01;4.30;34.90
67194;DHT22;54121;53.508;49.422;2023-02-15T08:49:35;4.70;35.30
67194;DHT22;54121;53.508;49.422;2023-02-15T08:52:07;4.80;34.40
67194;DHT22;54121;53.508;49.422;2023-02-15T08:54:52;4.20;33.80
67194;DHT22;54121;53.508;49.422;2023-02-15T08:57:35;5.40;36.40
67194;DHT22;54121;53.508;49.422;2023-02-15T09:00:09;4.70;33.60
67194;DHT22;54121;53.508;49.422;2023-02-15T09:02:35;5.60;35.50
67194;DHT22;54121;53.508;49.422;2023-02-15T09:05:19;6.30;32.10
67194;DHT22;54121;53.508;49.422;2023-02-15T09:07:47;6.10;32.50
67194;DHT22;54121;53.508;49.422;2023-02-15T09:10:14;6.40;32.60
67194;DHT22;54121;53.508;49.422;2023-02-15T09:12:55;6.50;32.60
67194;DHT22;54121;53.508;49.422;2023-02-15T09:15:22;6.50;31.90
67194;DHT22;54121;53.508;49.422;2023-02-15T09:17:48;6.80;32.50
67194;DHT22;54121;53.508;49.422;2023-02-15T09:20:27;7.00;31.80
67194;DHT22;54121;53.508;49.422;2023-02-15T09:23:05;6.70;31.10
67194;DHT22;54121;53.508;49.422;2023-02-15T09:25:34;6.60;31.80
67194;DHT22;54121;53.508;49.422;2023-02-15T09:28:00;6.90;31.70
67194;DHT22;54121;53.508;49.422;2023-02-15T09:30:27;6.70;31.60
67194;DHT22;54121;53.508;49.422;2023-02-15T09:32:59;6.90;31.30
67194;DHT22;54121;53.508;49.422;2023-02-15T09:35:31;7.10;31.60
67194;DHT22;54121;53.508;49.422;2023-02-15T09:37:58;7.20;31.10
67194;DHT22;54121;53.508;49.422;2023-02-15T09:40:26;7.30;30.40
67194;DHT22;54121;53.508;49.422;2023-02-15T09:48:54;7.60;30.90
67194;DHT22;54121;53.508;49.422;2023-02-15T09:51:39;7.70;30.50
67194;DHT22;54121;53.508;49.422;2023-02-15T09:54:37;8.10;29.40
67194;DHT22;54121;53.508;49.422;2023-02-15T10:12:05;8.70;27.20
67194;DHT22;54121;53.508;49.422;2023-02-15T10:26:19;9.50;25.60
67194;DHT22;54121;53.508;49.422;2023-02-15T10:29:07;9.30;26.00
67194;DHT22;54121;53.508;49.422;2023-02-15T10:31:51;9.60;26.60
67194;DHT22;54121;53.508;49.422;2023-02-15T10:34:42;9.80;25.80
67194;DHT22;54121;53.508;49.422;2023-02-15T10:45:17;9.60;25.60
67194;DHT22;54121;53.508;49.422;2023-02-15T10:48:20;9.80;25.20
67194;DHT22;54121;53.508;49.422;2023-02-15T10:50:52;9.80;24.70
67194;DHT22;54121;53.508;49.422;2023-02-15T11:02:15;9.20;26.10
67194;DHT22;54121;53.508;49.422;2023-02-15T11:04:58;8.40;26.60
67194;DHT22;54121;53.508;49.422;2023-02-15T11:07:35;8.70;26.60
67194;DHT22;54121;53.508;49.422;2023-02-15T11:12:53;8.10;26.70
67194;DHT22;54121;53.508;49.422;2023-02-15T11:15:34;8.50;27.10
67194;DHT22;54121;53.508;49.422;2023-02-15T11:20:55;8.00;27.50
67194;DHT22;54121;53.508;49.422;2023-02-15T11:23:24;7.90;27.80
67194;DHT22;54121;53.508;49.422;2023-02-15T11:26:00;7.90;28.10
67194;DHT22;54121;53.508;49.422;2023-02-15T11:28:54;7.40;27.60
67194;DHT22;54121;53.508;49.422;2023-02-15T11:31:43;7.30;28.70
67194;DHT22;54121;53.508;49.422;2023-02-15T11:34:47;7.70;27.90
67194;DHT22;54121;53.508;49.422;2023-02-15T11:37:48;7.40;28.90
67194;DHT22;54121;53.508;49.422;2023-02-15T11:40:17;6.90;29.30
67194;DHT22;54121;53.508;49.422;2023-02-15T11:42:46;7.10;29.50
67194;DHT22;54121;53.508;49.422;2023-02-15T11:45:32;6.90;29.10
67194;DHT22;54121;53.508;49.422;2023-02-15T11:48:01;6.60;29.40
67194;DHT22;54121;53.508;49.422;2023-02-15T11:50:47;7.10;29.40
67194;DHT22;54121;53.508;49.422;2023-02-15T11:53:28;6.70;29.50
67194;DHT22;54121;53.508;49.422;2023-02-15T11:56:22;6.50;29.80
67194;DHT22;54121;53.508;49.422;2023-02-15T11:58:59;6.20;29.90
67194;DHT22;54121;53.508;49.422;2023-02-15T12:04:32;6.40;30.50
67194;DHT22;54121;53.508;49.422;2023-02-15T12:07:12;5.80;30.90
67194;DHT22;54121;53.508;49.422;2023-02-15T12:15:44;5.00;31.40
67194;DHT22;54121;53.508;49.422;2023-02-15T12:18:38;5.10;32.60
67194;DHT22;54121;53.508;49.422;2023-02-15T12:21:34;5.30;32.70
67194;DHT22;54121;53.508;49.422;2023-02-15T12:24:44;4.90;32.80
67194;DHT22;54121;53.508;49.422;2023-02-15T12:27:48;5.20;33.10
67194;DHT22;54121;53.508;49.422;2023-02-15T12:30:21;4.60;33.30
67194;DHT22;54121;53.508;49.422;2023-02-15T12:36:18;4.50;34.00
67194;DHT22;54121;53.508;49.422;2023-02-15T12:39:05;4.20;34.60
67194;DHT22;54121;53.508;49.422;2023-02-15T12:41:31;4.60;35.00
67194;DHT22;54121;53.508;49.422;2023-02-15T12:44:23;5.20;33.60
67194;DHT22;54121;53.508;49.422;2023-02-15T12:50:23;4.30;34.30
67194;DHT22;54121;53.508;49.422;2023-02-15T12:53:47;4.00;34.40
67194;DHT22;54121;53.508;49.422;2023-02-15T12:55:58;3.40;35.90
67194;DHT22;54121;53.508;49.422;2023-02-15T12:58:27;3.80;35.70
67194;DHT22;54121;53.508;49.422;2023-02-15T13:01:16;3.60;36.30
67194;DHT22;54121;53.508;49.422;2023-02-15T13:04:03;3.70;36.60
67194;DHT22;54121;53.508;49.422;2023-02-15T13:06:38;3.90;34.80
67194;DHT22;54121;53.508;49.422;2023-02-15T13:12:30;2.80;37.20
67194;DHT22;54121;53.508;49.422;2023-02-15T13:15:27;2.10;38.60
67194;DHT22;54121;53.508;49.422;2023-02-15T13:18:18;1.70;40.50
67194;DHT22;54121;53.508;49.422;2023-02-15T13:21:09;1.60;40.00
67194;DHT22;54121;53.508;49.422;2023-02-15T13:23:40;2.90;38.80
67194;DHT22;54121;53.508;49.422;2023-02-15T13:26:15;2.80;38.10
67194;DHT22;54121;53.508;49.422;2023-02-15T13:28:47;2.50;38.50
67194;DHT22;54121;53.508;49.422;2023-02-15T13:31:18;2.90;37.60
67194;DHT22;54121;53.508;49.422;2023-02-15T13:34:28;2.70;37.90
67194;DHT22;54121;53.508;49.422;2023-02-15T13:36:54;2.30;38.00
67194;DHT22;54121;53.508;49.422;2023-02-15T13:42:30;1.10;41.60
67194;DHT22;54121;53.508;49.422;2023-02-15T13:50:54;1.10;42.70
67194;DHT22;54121;53.508;49.422;2023-02-15T13:53:44;1.00;43.30
67194;DHT22;54121;53.508;49.422;2023-02-15T14:02:07;0.70;44.30
67194;DHT22;54121;53.508;49.422;2023-02-15T14:04:46;0.60;44.60
67194;DHT22;54121;53.508;49.422;2023-02-15T14:18:42;0.10;45.20
67194;DHT22;54121;53.508;49.422;2023-02-15T14:21:14;-0.60;46.80
67194;DHT22;54121;53.508;49.422;2023-02-15T14:27:08;-1.90;51.80
67194;DHT22;54121;53.508;49.422;2023-02-15T14:32:45;-2.80;56.00
67194;DHT22;54121;53.508;49.422;2023-02-15T14:35:19;-3.10;57.30
67194;DHT22;54121;53.508;49.422;2023-02-15T14:43:55;-3.60;60.00
67194;DHT22;54121;53.508;49.422;2023-02-15T14:49:27;-4.00;61.00
67194;DHT22;54121;53.508;49.422;2023-02-15T14:52:00;-4.10;62.30
67194;DHT22;54121;53.508;49.422;2023-02-15T14:59:45;-4.50;65.10
67194;DHT22;54121;53.508;49.422;2023-02-15T15:02:30;-4.30;64.90
67194;DHT22;54121;53.508;49.422;2023-02-15T15:05:33;-4.10;63.60
67194;DHT22;54121;53.508;49.422;2023-02-15T15:08:39;-4.50;64.70
67194;DHT22;54121;53.508;49.422;2023-02-15T15:17:09;-4.80;68.30
67194;DHT22;54121;53.508;49.422;2023-02-15T15:26:38;-4.90;69.60
67194;DHT22;54121;53.508;49.422;2023-02-15T15:29:13;-4.80;68.90
67194;DHT22;54121;53.508;49.422;2023-02-15T15:31:52;-4.90;68.50
67194;DHT22;54121;53.508;49.422;2023-02-15T15:46:24;-5.10;69.00
67194;DHT22;54121;53.508;49.422;2023-02-15T15:49:22;-4.90;69.00
67194;DHT22;54121;53.508;49.422;2023-02-15T15:51:50;-4.90;68.80
67194;DHT22;54121;53.508;49.422;2023-02-15T15:54:23;-5.00;69.30
67194;DHT22;54121;53.508;49.422;2023-02-15T15:57:00;-5.10;70.20
67194;DHT22;54121;53.508;49.422;2023-02-15T15:59:30;-5.20;70.70
67194;DHT22;54121;53.508;49.422;2023-02-15T16:02:11;-5.20;70.90
67194;DHT22;54121;53.508;49.422;2023-02-15T16:04:38;-4.90;70.20
67194;DHT22;54121;53.508;49.422;2023-02-15T16:10:25;-5.10;70.60
67194;DHT22;54121;53.508;49.422;2023-02-15T16:12:54;-5.10;70.70
67194;DHT22;54121;53.508;49.422;2023-02-15T16:15:51;-5.10;70.20
67194;DHT22;54121;53.508;49.422;2023-02-15T16:18:21;-5.30;70.80
67194;DHT22;54121;53.508;49.422;2023-02-15T16:20:58;-5.30;71.60
67194;DHT22;54121;53.508;49.422;2023-02-15T16:26:32;-5.20;70.80
67194;DHT22;54121;53.508;49.422;2023-02-15T16:29:29;-5.40;72.00
67194;DHT22;54121;53.508;49.422;2023-02-15T16:32:04;-5.40;73.30
67194;DHT22;54121;53.508;49.422;2023-02-15T16:34:37;-5.30;73.10
67194;DHT22;54121;53.508;49.422;2023-02-15T16:37:18;-5.30;73.10
67194;DHT22;54121;53.508;49.422;2023-02-15T16:39:47;-5.30;74.00
67194;DHT22;54121;53.508;49.422;2023-02-15T16:42:18;-5.40;74.60
67194;DHT22;54121;53.508;49.422;2023-02-15T16:44:48;-5.40;74.90
67194;DHT22;54121;53.508;49.422;2023-02-15T16:47:44;-5.40;75.40
67194;DHT22;54121;53.508;49.422;2023-02-15T16:50:23;-5.40;75.50
67194;DHT22;54121;53.508;49.422;2023-02-15T16:52:57;-5.50;75.40
67194;DHT22;54121;53.508;49.422;2023-02-15T16:55:48;-5.60;75.80
67194;DHT22;54121;53.508;49.422;2023-02-15T16:58:41;-5.50;76.10
67194;DHT22;54121;53.508;49.422;2023-02-15T17:01:14;-5.60;76.20
67194;DHT22;54121;53.508;49.422;2023-02-15T17:09:32;-5.60;76.30
67194;DHT22;54121;53.508;49.422;2023-02-15T17:12:13;-5.50;76.20
67194;DHT22;54121;53.508;49.422;2023-02-15T17:18:16;-5.50;75.40
67194;DHT22;54121;53.508;49.422;2023-02-15T17:20:54;-5.50;75.10
67194;DHT22;54121;53.508;49.422;2023-02-15T17:23:42;-5.50;75.10
67194;DHT22;54121;53.508;49.422;2023-02-15T17:26:35;-5.50;75.20
67194;DHT22;54121;53.508;49.422;2023-02-15T17:29:22;-5.60;75.40
67194;DHT22;54121;53.508;49.422;2023-02-15T17:31:51;-5.60;75.80
67194;DHT22;54121;53.508;49.422;2023-02-15T17:35:06;-5.60;75.70
67194;DHT22;54121;53.508;49.422;2023-02-15T17:38:15;-5.60;75.80
67194;DHT22;54121;53.508;49.422;2023-02-15T17:40:43;-5.60;75.80
67194;DHT22;54121;53.508;49.422;2023-02-15T17:43:09;-5.60;75.50
67194;DHT22;54121;53.508;49.422;2023-02-15T17:46:00;-5.70;75.60
67194;DHT22;54121;53.508;49.422;2023-02-15T17:48:39;-5.80;76.10
67194;DHT22;54121;53.508;49.422;2023-02-15T17:51:20;-5.80;76.10
67194;DHT22;54121;53.508;49.422;2023-02-15T17:54:02;-5.80;76.40
67194;DHT22;54121;53.508;49.422;2023-02-15T17:56:47;-5.90;76.40
67194;DHT22;54121;53.508;49.422;2023-02-15T17:59:14;-5.80;77.30
67194;DHT22;54121;53.508;49.422;2023-02-15T18:01:48;-5.90;77.10
67194;DHT22;54121;53.508;49.422;2023-02-15T18:04:35;-5.80;77.70
67194;DHT22;54121;53.508;49.422;2023-02-15T18:07:20;-5.90;77.40
67194;DHT22;54121;53.508;49.422;2023-02-15T18:10:16;-5.90;77.90
67194;DHT22;54121;53.508;49.422;2023-02-15T18:13:01;-5.80;77.80
67194;DHT22;54121;53.508;49.422;2023-02-15T18:15:28;-5.80;77.70
67194;DHT22;54121;53.508;49.422;2023-02-15T18:17:56;-5.00;78.10
67194;DHT22;54121;53.508;49.422;2023-02-15T18:20:34;-5.80;77.30
67194;DHT22;54121;53.508;49.422;2023-02-15T18:23:05;-5.80;77.70
67194;DHT22;54121;53.508;49.422;2023-02-15T18:25:31;-5.80;77.40
67194;DHT22;54121;53.508;49.422;2023-02-15T18:27:58;-5.70;77.20
67194;DHT22;54121;53.508;49.422;2023-02-15T18:30:24;-5.70;77.10
67194;DHT22;54121;53.508;49.422;2023-02-15T18:32:53;-5.60;76.30
67194;DHT22;54121;53.508;49.422;2023-02-15T18:35:23;-5.50;75.50
67194;DHT22;54121;53.508;49.422;2023-02-15T18:37:52;-5.60;75.70
67194;DHT22;54121;53.508;49.422;2023-02-15T18:40:27;-5.60;76.20
67194;DHT22;54121;53.508;49.422;2023-02-15T18:42:54;-5.60;75.60
67194;DHT22;54121;53.508;49.422;2023-02-15T18:45:24;-5.50;74.80
67194;DHT22;54121;53.508;49.422;2023-02-15T18:47:53;-5.50;74.70
67194;DHT22;54121;53.508;49.422;2023-02-15T18:50:21;-5.50;74.80
67194;DHT22;54121;53.508;49.422;2023-02-15T18:52:50;-5.50;74.90
67194;DHT22;54121;53.508;49.422;2023-02-15T18:55:22;-5.60;75.00
67194;DHT22;54121;53.508;49.422;2023-02-15T18:57:51;-5.60;75.00
67194;DHT22;54121;53.508;49.422;2023-02-15T19:00:23;-5.70;75.10
67194;DHT22;54121;53.508;49.422;2023-02-15T19:02:55;-5.80;76.20
67194;DHT22;54121;53.508;49.422;2023-02-15T19:05:22;-5.90;77.10
67194;DHT22;54121;53.508;49.422;2023-02-15T19:07:49;-5.90;77.60
67194;DHT22;54121;53.508;49.422;2023-02-15T19:10:22;-6.00;77.70
67194;DHT22;54121;53.508;49.422;2023-02-15T19:12:50;-6.00;77.70
67194;DHT22;54121;53.508;49.422;2023-02-15T19:15:35;-6.00;77.90
67194;DHT22;54121;53.508;49.422;2023-02-15T19:18:05;-6.00;78.50